sensor_id;sensor_type;location;lat;lon;timestamp;P1;durP1;ratioP1;P2;durP2;ratioP2
42096;SDS011;27754;45.414;11.084;2023-02-23T00:01:52;128.23;;;66.40;;
42096;SDS011;27754;45.414;11.084;2023-02-23T00:04:21;132.45;;;68.40;;
42096;SDS011;27754;45.414;11.084;2023-02-23T00:06:50;139.18;;;66.15;;
42096;SDS011;27754;45.414;11.084;2023-02-23T00:09:18;135.80;;;67.05;;
42096;SDS011;27754;45.414;11.084;2023-02-23T00:11:54;128.20;;;66.05;;
42096;SDS011;27754;45.414;11.084;2023-02-23T00:14:26;132.80;;;67.30;;
42096;SDS011;27754;45.414;11.084;2023-02-23T00:16:57;132.52;;;66.85;;
42096;SDS011;27754;45.414;11.084;2023-02-23T00:19:25;129.55;;;66.60;;
42096;SDS011;27754;45.414;11.084;2023-02-23T00:21:52;128.23;;;67.68;;
42096;SDS011;27754;45.414;11.084;2023-02-23T00:24:19;128.60;;;67.53;;
42096;SDS011;27754;45.414;11.084;2023-02-23T00:26:47;133.15;;;68.65;;
42096;SDS011;27754;45.414;11.084;2023-02-23T00:29:18;124.25;;;64.40;;
42096;SDS011;27754;45.414;11.084;2023-02-23T00:31:48;134.88;;;67.85;;
42096;SDS011;27754;45.414;11.084;2023-02-23T00:34:17;137.25;;;68.40;;
42096;SDS011;27754;45.414;11.084;2023-02-23T00:36:53;134.70;;;68.35;;
42096;SDS011;27754;45.414;11.084;2023-02-23T00:39:21;135.77;;;67.13;;
42096;SDS011;27754;45.414;11.084;2023-02-23T00:41:55;140.00;;;71.03;;
42096;SDS011;27754;45.414;11.084;2023-02-23T00:44:28;129.93;;;68.22;;
42096;SDS011;27754;45.414;11.084;2023-02-23T00:46:55;136.43;;;68.20;;
42096;SDS011;27754;45.414;11.084;2023-02-23T00:49:22;136.68;;;68.45;;
42096;SDS011;27754;45.414;11.084;2023-02-23T00:51:49;136.68;;;67.53;;
42096;SDS011;27754;45.414;11.084;2023-02-23T00:54:18;130.30;;;67.82;;
42096;SDS011;27754;45.414;11.084;2023-02-23T00:56:46;128.90;;;68.18;;
42096;SDS011;27754;45.414;11.084;2023-02-23T00:59:14;137.50;;;68.20;;
42096;SDS011;27754;45.414;11.084;2023-02-23T01:01:41;148.30;;;71.75;;
42096;SDS011;27754;45.414;11.084;2023-02-23T01:04:09;137.68;;;68.38;;
42096;SDS011;27754;45.414;11.084;2023-02-23T01:06:37;134.82;;;69.68;;
42096;SDS011;27754;45.414;11.084;2023-02-23T01:09:07;136.57;;;68.78;;
42096;SDS011;27754;45.414;11.084;2023-02-23T01:11:39;136.60;;;69.53;;
42096;SDS011;27754;45.414;11.084;2023-02-23T01:14:07;134.70;;;69.15;;
42096;SDS011;27754;45.414;11.084;2023-02-23T01:16:35;123.63;;;64.65;;
42096;SDS011;27754;45.414;11.084;2023-02-23T01:19:04;117.43;;;62.97;;
42096;SDS011;27754;45.414;11.084;2023-02-23T01:21:33;120.47;;;61.35;;
42096;SDS011;27754;45.414;11.084;2023-02-23T01:24:01;120.90;;;63.08;;
42096;SDS011;27754;45.414;11.084;2023-02-23T01:26:30;120.68;;;62.25;;
42096;SDS011;27754;45.414;11.084;2023-02-23T01:29:06;120.47;;;61.47;;
42096;SDS011;27754;45.414;11.084;2023-02-23T01:31:39;114.18;;;58.15;;
42096;SDS011;27754;45.414;11.084;2023-02-23T01:34:11;117.60;;;62.30;;
42096;SDS011;27754;45.414;11.084;2023-02-23T01:36:40;117.93;;;60.05;;
42096;SDS011;27754;45.414;11.084;2023-02-23T01:39:14;110.57;;;57.63;;
42096;SDS011;27754;45.414;11.084;2023-02-23T01:41:43;107.38;;;59.70;;
42096;SDS011;27754;45.414;11.084;2023-02-23T01:46:41;115.75;;;58.95;;
42096;SDS011;27754;45.414;11.084;2023-02-23T01:49:15;113.60;;;57.45;;
42096;SDS011;27754;45.414;11.084;2023-02-23T01:51:48;113.72;;;60.35;;
42096;SDS011;27754;45.414;11.084;2023-02-23T01:54:18;115.40;;;59.58;;
42096;SDS011;27754;45.414;11.084;2023-02-23T01:56:50;121.78;;;61.45;;
42096;SDS011;27754;45.414;11.084;2023-02-23T01:59:31;115.53;;;58.03;;
42096;SDS011;27754;45.414;11.084;2023-02-23T02:02:07;113.30;;;59.38;;
42096;SDS011;27754;45.414;11.084;2023-02-23T02:04:35;106.18;;;55.58;;
42096;SDS011;27754;45.414;11.084;2023-02-23T02:07:14;116.57;;;58.25;;
42096;SDS011;27754;45.414;11.084;2023-02-23T02:09:46;118.28;;;59.78;;
42096;SDS011;27754;45.414;11.084;2023-02-23T02:12:35;110.97;;;57.35;;
42096;SDS011;27754;45.414;11.084;2023-02-23T02:15:04;108.57;;;54.63;;
42096;SDS011;27754;45.414;11.084;2023-02-23T02:17:42;108.72;;;56.45;;
42096;SDS011;27754;45.414;11.084;2023-02-23T02:26:38;107.35;;;55.85;;
42096;SDS011;27754;45.414;11.084;2023-02-23T02:31:58;102.50;;;51.97;;
42096;SDS011;27754;45.414;11.084;2023-02-23T02:37:50;100.90;;;52.60;;
42096;SDS011;27754;45.414;11.084;2023-02-23T02:43:49;107.65;;;53.95;;
42096;SDS011;27754;45.414;11.084;2023-02-23T02:46:31;105.60;;;54.78;;
42096;SDS011;27754;45.414;11.084;2023-02-23T02:49:09;108.05;;;55.90;;
42096;SDS011;27754;45.414;11.084;2023-02-23T02:51:54;109.35;;;56.03;;
42096;SDS011;27754;45.414;11.084;2023-02-23T02:54:25;110.10;;;56.50;;
42096;SDS011;27754;45.414;11.084;2023-02-23T02:57:02;104.40;;;54.22;;
42096;SDS011;27754;45.414;11.084;2023-02-23T02:59:33;109.05;;;55.58;;
42096;SDS011;27754;45.414;11.084;2023-02-23T03:02:31;103.82;;;54.58;;
42096;SDS011;27754;45.414;11.084;2023-02-23T03:05:30;107.45;;;53.92;;
42096;SDS011;27754;45.414;11.084;2023-02-23T03:11:38;105.85;;;56.58;;
42096;SDS011;27754;45.414;11.084;2023-02-23T03:14:37;97.75;;;51.20;;
42096;SDS011;27754;45.414;11.084;2023-02-23T03:23:25;124.93;;;62.45;;
42096;SDS011;27754;45.414;11.084;2023-02-23T03:26:24;122.50;;;61.38;;
42096;SDS011;27754;45.414;11.084;2023-02-23T03:30:13;114.30;;;59.78;;
42096;SDS011;27754;45.414;11.084;2023-02-23T03:32:44;114.28;;;60.33;;
42096;SDS011;27754;45.414;11.084;2023-02-23T03:35:41;120.85;;;61.78;;
42096;SDS011;27754;45.414;11.084;2023-02-23T03:38:47;123.75;;;63.47;;
42096;SDS011;27754;45.414;11.084;2023-02-23T03:41:54;125.80;;;65.95;;
42096;SDS011;27754;45.414;11.084;2023-02-23T03:44:42;127.47;;;66.05;;
42096;SDS011;27754;45.414;11.084;2023-02-23T03:47:32;126.25;;;64.13;;
42096;SDS011;27754;45.414;11.084;2023-02-23T03:50:29;131.10;;;67.32;;
42096;SDS011;27754;45.414;11.084;2023-02-23T03:53:30;122.05;;;64.63;;
42096;SDS011;27754;45.414;11.084;2023-02-23T03:56:19;119.55;;;64.32;;
42096;SDS011;27754;45.414;11.084;2023-02-23T03:59:08;133.27;;;66.07;;
42096;SDS011;27754;45.414;11.084;2023-02-23T04:01:59;121.78;;;66.82;;
42096;SDS011;27754;45.414;11.084;2023-02-23T04:04:46;134.20;;;65.57;;
42096;SDS011;27754;45.414;11.084;2023-02-23T04:07:33;119.15;;;63.58;;
42096;SDS011;27754;45.414;11.084;2023-02-23T04:10:20;129.82;;;65.80;;
42096;SDS011;27754;45.414;11.084;2023-02-23T04:18:39;122.10;;;63.35;;
42096;SDS011;27754;45.414;11.084;2023-02-23T04:21:07;121.47;;;64.15;;
42096;SDS011;27754;45.414;11.084;2023-02-23T04:23:35;122.30;;;64.63;;
42096;SDS011;27754;45.414;11.084;2023-02-23T04:26:05;118.10;;;63.08;;
42096;SDS011;27754;45.414;11.084;2023-02-23T04:28:32;127.68;;;65.45;;
42096;SDS011;27754;45.414;11.084;2023-02-23T04:31:00;122.88;;;65.72;;
42096;SDS011;27754;45.414;11.084;2023-02-23T04:33:27;126.88;;;63.92;;
42096;SDS011;27754;45.414;11.084;2023-02-23T04:35:54;128.40;;;65.55;;
42096;SDS011;27754;45.414;11.084;2023-02-23T04:38:21;124.45;;;65.22;;
42096;SDS011;27754;45.414;11.084;2023-02-23T04:40:49;123.57;;;62.95;;
42096;SDS011;27754;45.414;11.084;2023-02-23T04:43:16;128.10;;;65.95;;
42096;SDS011;27754;45.414;11.084;2023-02-23T04:45:43;123.95;;;63.67;;
42096;SDS011;27754;45.414;11.084;2023-02-23T04:48:11;127.75;;;65.50;;
42096;SDS011;27754;45.414;11.084;2023-02-23T04:50:38;127.35;;;67.63;;
42096;SDS011;27754;45.414;11.084;2023-02-23T04:53:05;131.73;;;68.15;;
42096;SDS011;27754;45.414;11.084;2023-02-23T04:55:32;130.10;;;67.80;;
42096;SDS011;27754;45.414;11.084;2023-02-23T04:57:59;135.60;;;68.95;;
42096;SDS011;27754;45.414;11.084;2023-02-23T05:00:27;131.02;;;67.20;;
42096;SDS011;27754;45.414;11.084;2023-02-23T05:02:55;136.90;;;69.32;;
42096;SDS011;27754;45.414;11.084;2023-02-23T05:05:23;129.73;;;68.47;;
42096;SDS011;27754;45.414;11.084;2023-02-23T05:07:50;128.23;;;67.63;;
42096;SDS011;27754;45.414;11.084;2023-02-23T05:10:17;135.35;;;67.18;;
42096;SDS011;27754;45.414;11.084;2023-02-23T05:12:44;133.52;;;67.43;;
42096;SDS011;27754;45.414;11.084;2023-02-23T05:15:12;132.25;;;68.70;;
42096;SDS011;27754;45.414;11.084;2023-02-23T05:17:39;129.77;;;66.60;;
42096;SDS011;27754;45.414;11.084;2023-02-23T05:20:09;132.73;;;66.75;;
42096;SDS011;27754;45.414;11.084;2023-02-23T05:22:37;133.98;;;67.10;;
42096;SDS011;27754;45.414;11.084;2023-02-23T05:25:04;139.32;;;69.30;;
42096;SDS011;27754;45.414;11.084;2023-02-23T05:27:32;135.73;;;68.50;;
42096;SDS011;27754;45.414;11.084;2023-02-23T05:29:59;126.53;;;66.50;;
42096;SDS011;27754;45.414;11.084;2023-02-23T05:32:27;127.93;;;64.88;;
42096;SDS011;27754;45.414;11.084;2023-02-23T05:34:55;136.88;;;66.35;;
42096;SDS011;27754;45.414;11.084;2023-02-23T05:37:22;127.70;;;66.57;;
42096;SDS011;27754;45.414;11.084;2023-02-23T05:39:48;129.13;;;65.80;;
42096;SDS011;27754;45.414;11.084;2023-02-23T05:42:15;132.90;;;67.35;;
42096;SDS011;27754;45.414;11.084;2023-02-23T05:44:42;129.50;;;66.68;;
42096;SDS011;27754;45.414;11.084;2023-02-23T05:47:09;129.43;;;66.40;;
42096;SDS011;27754;45.414;11.084;2023-02-23T05:49:36;125.10;;;63.78;;
42096;SDS011;27754;45.414;11.084;2023-02-23T05:52:03;129.65;;;65.72;;
42096;SDS011;27754;45.414;11.084;2023-02-23T05:54:30;141.30;;;68.72;;
42096;SDS011;27754;45.414;11.084;2023-02-23T05:56:57;130.43;;;66.13;;
42096;SDS011;27754;45.414;11.084;2023-02-23T05:59:27;128.57;;;65.25;;
42096;SDS011;27754;45.414;11.084;2023-02-23T06:01:54;128.93;;;66.28;;
42096;SDS011;27754;45.414;11.084;2023-02-23T06:04:21;132.18;;;67.90;;
42096;SDS011;27754;45.414;11.084;2023-02-23T06:06:49;126.65;;;65.50;;
42096;SDS011;27754;45.414;11.084;2023-02-23T06:09:16;131.60;;;67.85;;
42096;SDS011;27754;45.414;11.084;2023-02-23T06:11:43;123.75;;;65.85;;
42096;SDS011;27754;45.414;11.084;2023-02-23T06:14:10;122.53;;;65.85;;
42096;SDS011;27754;45.414;11.084;2023-02-23T06:16:37;129.35;;;67.85;;
42096;SDS011;27754;45.414;11.084;2023-02-23T06:19:04;127.28;;;65.68;;
42096;SDS011;27754;45.414;11.084;2023-02-23T06:21:31;125.35;;;65.55;;
42096;SDS011;27754;45.414;11.084;2023-02-23T06:23:58;130.50;;;68.25;;
42096;SDS011;27754;45.414;11.084;2023-02-23T06:26:26;130.65;;;66.40;;
42096;SDS011;27754;45.414;11.084;2023-02-23T06:28:53;126.78;;;64.85;;
42096;SDS011;27754;45.414;11.084;2023-02-23T06:31:20;127.85;;;66.55;;
42096;SDS011;27754;45.414;11.084;2023-02-23T06:33:48;127.82;;;66.82;;
42096;SDS011;27754;45.414;11.084;2023-02-23T06:36:16;126.72;;;66.93;;
42096;SDS011;27754;45.414;11.084;2023-02-23T06:38:43;123.00;;;65.63;;
42096;SDS011;27754;45.414;11.084;2023-02-23T06:41:10;126.30;;;65.28;;
42096;SDS011;27754;45.414;11.084;2023-02-23T06:43:38;125.68;;;64.90;;
42096;SDS011;27754;45.414;11.084;2023-02-23T06:46:05;133.43;;;67.97;;
42096;SDS011;27754;45.414;11.084;2023-02-23T06:48:32;123.72;;;64.18;;
42096;SDS011;27754;45.414;11.084;2023-02-23T06:50:59;124.28;;;66.75;;
42096;SDS011;27754;45.414;11.084;2023-02-23T06:53:26;142.98;;;73.75;;
42096;SDS011;27754;45.414;11.084;2023-02-23T06:55:53;134.50;;;67.68;;
42096;SDS011;27754;45.414;11.084;2023-02-23T06:58:20;129.05;;;66.45;;
42096;SDS011;27754;45.414;11.084;2023-02-23T07:00:47;139.13;;;67.93;;
42096;SDS011;27754;45.414;11.084;2023-02-23T07:03:14;139.88;;;67.45;;
42096;SDS011;27754;45.414;11.084;2023-02-23T07:05:41;136.75;;;65.55;;
42096;SDS011;27754;45.414;11.084;2023-02-23T07:08:08;127.60;;;67.55;;
42096;SDS011;27754;45.414;11.084;2023-02-23T07:10:35;134.07;;;65.88;;
42096;SDS011;27754;45.414;11.084;2023-02-23T07:13:02;145.75;;;70.32;;
42096;SDS011;27754;45.414;11.084;2023-02-23T07:15:29;136.02;;;66.38;;
42096;SDS011;27754;45.414;11.084;2023-02-23T07:17:56;139.40;;;67.57;;
42096;SDS011;27754;45.414;11.084;2023-02-23T07:20:23;143.60;;;68.97;;
42096;SDS011;27754;45.414;11.084;2023-02-23T07:22:50;152.68;;;70.15;;
42096;SDS011;27754;45.414;11.084;2023-02-23T07:25:17;140.93;;;68.50;;
42096;SDS011;27754;45.414;11.084;2023-02-23T07:27:44;134.32;;;67.70;;
42096;SDS011;27754;45.414;11.084;2023-02-23T07:30:11;133.35;;;70.13;;
42096;SDS011;27754;45.414;11.084;2023-02-23T07:32:39;130.93;;;69.65;;
42096;SDS011;27754;45.414;11.084;2023-02-23T07:35:07;141.55;;;74.07;;
42096;SDS011;27754;45.414;11.084;2023-02-23T07:37:34;138.18;;;71.28;;
42096;SDS011;27754;45.414;11.084;2023-02-23T07:40:02;142.77;;;72.45;;
42096;SDS011;27754;45.414;11.084;2023-02-23T07:42:29;136.80;;;70.72;;
42096;SDS011;27754;45.414;11.084;2023-02-23T07:44:56;131.07;;;69.80;;
42096;SDS011;27754;45.414;11.084;2023-02-23T07:47:23;127.53;;;67.25;;
42096;SDS011;27754;45.414;11.084;2023-02-23T07:49:59;139.20;;;70.88;;
42096;SDS011;27754;45.414;11.084;2023-02-23T07:52:28;143.70;;;70.40;;
42096;SDS011;27754;45.414;11.084;2023-02-23T07:54:55;139.75;;;72.55;;
42096;SDS011;27754;45.414;11.084;2023-02-23T07:57:23;141.63;;;71.68;;
42096;SDS011;27754;45.414;11.084;2023-02-23T07:59:50;143.55;;;73.15;;
42096;SDS011;27754;45.414;11.084;2023-02-23T08:02:17;144.18;;;71.07;;
42096;SDS011;27754;45.414;11.084;2023-02-23T08:04:44;132.48;;;70.35;;
42096;SDS011;27754;45.414;11.084;2023-02-23T08:07:11;144.60;;;73.53;;
42096;SDS011;27754;45.414;11.084;2023-02-23T08:09:38;141.45;;;74.15;;
42096;SDS011;27754;45.414;11.084;2023-02-23T08:12:05;153.65;;;75.43;;
42096;SDS011;27754;45.414;11.084;2023-02-23T08:14:32;147.65;;;73.25;;
42096;SDS011;27754;45.414;11.084;2023-02-23T08:16:59;147.82;;;76.28;;
42096;SDS011;27754;45.414;11.084;2023-02-23T08:19:27;149.05;;;75.88;;
42096;SDS011;27754;45.414;11.084;2023-02-23T08:21:54;150.15;;;76.45;;
42096;SDS011;27754;45.414;11.084;2023-02-23T08:24:23;148.45;;;77.07;;
42096;SDS011;27754;45.414;11.084;2023-02-23T08:26:51;145.43;;;74.85;;
42096;SDS011;27754;45.414;11.084;2023-02-23T08:29:18;142.10;;;74.05;;
42096;SDS011;27754;45.414;11.084;2023-02-23T08:31:46;158.82;;;76.45;;
42096;SDS011;27754;45.414;11.084;2023-02-23T08:34:14;148.77;;;77.28;;
42096;SDS011;27754;45.414;11.084;2023-02-23T08:36:41;151.10;;;78.47;;
42096;SDS011;27754;45.414;11.084;2023-02-23T08:39:11;144.95;;;77.53;;
42096;SDS011;27754;45.414;11.084;2023-02-23T08:41:39;146.38;;;76.10;;
42096;SDS011;27754;45.414;11.084;2023-02-23T08:44:06;157.50;;;80.05;;
42096;SDS011;27754;45.414;11.084;2023-02-23T08:46:33;147.35;;;78.40;;
42096;SDS011;27754;45.414;11.084;2023-02-23T08:49:00;152.32;;;79.43;;
42096;SDS011;27754;45.414;11.084;2023-02-23T08:51:28;164.40;;;83.35;;
42096;SDS011;27754;45.414;11.084;2023-02-23T08:53:55;167.73;;;82.70;;
42096;SDS011;27754;45.414;11.084;2023-02-23T08:56:23;149.85;;;78.97;;
42096;SDS011;27754;45.414;11.084;2023-02-23T08:58:50;152.63;;;81.03;;
42096;SDS011;27754;45.414;11.084;2023-02-23T09:01:19;145.32;;;78.30;;
42096;SDS011;27754;45.414;11.084;2023-02-23T09:03:49;161.77;;;83.47;;
42096;SDS011;27754;45.414;11.084;2023-02-23T09:06:18;155.25;;;80.80;;
42096;SDS011;27754;45.414;11.084;2023-02-23T09:08:46;147.00;;;76.88;;
42096;SDS011;27754;45.414;11.084;2023-02-23T09:11:14;157.93;;;78.68;;
42096;SDS011;27754;45.414;11.084;2023-02-23T09:13:41;150.10;;;79.63;;
42096;SDS011;27754;45.414;11.084;2023-02-23T09:16:08;162.18;;;80.57;;
42096;SDS011;27754;45.414;11.084;2023-02-23T09:18:35;159.68;;;82.07;;
42096;SDS011;27754;45.414;11.084;2023-02-23T09:21:03;156.20;;;77.93;;
42096;SDS011;27754;45.414;11.084;2023-02-23T09:23:36;155.55;;;77.60;;
42096;SDS011;27754;45.414;11.084;2023-02-23T09:26:04;148.95;;;78.00;;
42096;SDS011;27754;45.414;11.084;2023-02-23T09:28:32;138.05;;;74.18;;
42096;SDS011;27754;45.414;11.084;2023-02-23T09:31:10;139.88;;;75.82;;
42096;SDS011;27754;45.414;11.084;2023-02-23T09:33:39;139.43;;;75.82;;
42096;SDS011;27754;45.414;11.084;2023-02-23T09:36:07;143.68;;;76.72;;
42096;SDS011;27754;45.414;11.084;2023-02-23T09:38:42;150.93;;;81.35;;
42096;SDS011;27754;45.414;11.084;2023-02-23T09:44:06;146.73;;;80.22;;
42096;SDS011;27754;45.414;11.084;2023-02-23T09:47:23;148.57;;;77.95;;
42096;SDS011;27754;45.414;11.084;2023-02-23T09:49:56;144.50;;;75.18;;
42096;SDS011;27754;45.414;11.084;2023-02-23T09:52:27;138.65;;;75.65;;
42096;SDS011;27754;45.414;11.084;2023-02-23T09:55:09;141.30;;;73.45;;
42096;SDS011;27754;45.414;11.084;2023-02-23T09:57:39;143.48;;;73.15;;
42096;SDS011;27754;45.414;11.084;2023-02-23T10:00:22;135.73;;;73.75;;
42096;SDS011;27754;45.414;11.084;2023-02-23T10:03:05;136.02;;;72.28;;
42096;SDS011;27754;45.414;11.084;2023-02-23T10:05:52;139.60;;;74.20;;
42096;SDS011;27754;45.414;11.084;2023-02-23T10:14:03;141.65;;;75.60;;
42096;SDS011;27754;45.414;11.084;2023-02-23T10:16:44;140.80;;;75.18;;
42096;SDS011;27754;45.414;11.084;2023-02-23T10:19:20;139.43;;;75.65;;
42096;SDS011;27754;45.414;11.084;2023-02-23T10:22:03;149.30;;;77.88;;
42096;SDS011;27754;45.414;11.084;2023-02-23T10:24:36;146.20;;;77.15;;
42096;SDS011;27754;45.414;11.084;2023-02-23T10:29:51;138.27;;;75.15;;
42096;SDS011;27754;45.414;11.084;2023-02-23T10:35:17;139.18;;;75.18;;
42096;SDS011;27754;45.414;11.084;2023-02-23T10:37:46;140.15;;;74.18;;
42096;SDS011;27754;45.414;11.084;2023-02-23T10:40:15;144.95;;;75.28;;
42096;SDS011;27754;45.414;11.084;2023-02-23T10:42:46;168.32;;;77.63;;
42096;SDS011;27754;45.414;11.084;2023-02-23T10:45:14;143.77;;;73.78;;
42096;SDS011;27754;45.414;11.084;2023-02-23T10:50:51;132.95;;;72.90;;
42096;SDS011;27754;45.414;11.084;2023-02-23T10:53:34;140.52;;;72.35;;
42096;SDS011;27754;45.414;11.084;2023-02-23T10:56:18;133.70;;;72.53;;
42096;SDS011;27754;45.414;11.084;2023-02-23T11:01:34;141.25;;;75.88;;
42096;SDS011;27754;45.414;11.084;2023-02-23T11:04:28;132.88;;;72.50;;
42096;SDS011;27754;45.414;11.084;2023-02-23T11:07:16;132.32;;;73.80;;
42096;SDS011;27754;45.414;11.084;2023-02-23T11:09:49;141.93;;;72.30;;
42096;SDS011;27754;45.414;11.084;2023-02-23T11:12:39;132.45;;;73.15;;
42096;SDS011;27754;45.414;11.084;2023-02-23T11:18:19;133.85;;;74.47;;
42096;SDS011;27754;45.414;11.084;2023-02-23T11:20:48;130.90;;;72.90;;
42096;SDS011;27754;45.414;11.084;2023-02-23T11:23:30;136.65;;;74.28;;
42096;SDS011;27754;45.414;11.084;2023-02-23T11:26:02;135.73;;;73.78;;
42096;SDS011;27754;45.414;11.084;2023-02-23T11:28:32;134.05;;;74.25;;
42096;SDS011;27754;45.414;11.084;2023-02-23T11:31:03;136.02;;;74.10;;
42096;SDS011;27754;45.414;11.084;2023-02-23T11:33:40;137.10;;;71.20;;
42096;SDS011;27754;45.414;11.084;2023-02-23T11:36:23;126.60;;;69.55;;
42096;SDS011;27754;45.414;11.084;2023-02-23T11:41:33;141.77;;;74.72;;
42096;SDS011;27754;45.414;11.084;2023-02-23T11:44:02;132.63;;;71.20;;
42096;SDS011;27754;45.414;11.084;2023-02-23T11:46:34;134.93;;;72.55;;
42096;SDS011;27754;45.414;11.084;2023-02-23T11:49:07;137.52;;;73.28;;
42096;SDS011;27754;45.414;11.084;2023-02-23T11:51:40;128.85;;;70.90;;
42096;SDS011;27754;45.414;11.084;2023-02-23T11:54:18;124.35;;;71.05;;
42096;SDS011;27754;45.414;11.084;2023-02-23T11:56:52;127.13;;;69.80;;
42096;SDS011;27754;45.414;11.084;2023-02-23T11:59:30;125.18;;;70.78;;
42096;SDS011;27754;45.414;11.084;2023-02-23T12:06:30;136.73;;;76.68;;
42096;SDS011;27754;45.414;11.084;2023-02-23T12:11:50;127.25;;;72.20;;
42096;SDS011;27754;45.414;11.084;2023-02-23T12:14:30;129.38;;;73.53;;
42096;SDS011;27754;45.414;11.084;2023-02-23T12:17:08;127.70;;;72.32;;
42096;SDS011;27754;45.414;11.084;2023-02-23T12:19:43;125.22;;;69.78;;
42096;SDS011;27754;45.414;11.084;2023-02-23T12:22:19;128.90;;;70.78;;
42096;SDS011;27754;45.414;11.084;2023-02-23T12:25:03;125.07;;;69.65;;
42096;SDS011;27754;45.414;11.084;2023-02-23T12:27:54;132.77;;;70.30;;
42096;SDS011;27754;45.414;11.084;2023-02-23T12:30:52;123.78;;;70.45;;
42096;SDS011;27754;45.414;11.084;2023-02-23T12:33:27;121.88;;;67.55;;
42096;SDS011;27754;45.414;11.084;2023-02-23T12:36:24;124.93;;;72.47;;
42096;SDS011;27754;45.414;11.084;2023-02-23T12:38:58;129.30;;;73.10;;
42096;SDS011;27754;45.414;11.084;2023-02-23T12:41:42;133.30;;;71.00;;
42096;SDS011;27754;45.414;11.084;2023-02-23T12:50:10;122.05;;;67.60;;
42096;SDS011;27754;45.414;11.084;2023-02-23T12:52:48;124.70;;;70.38;;
42096;SDS011;27754;45.414;11.084;2023-02-23T12:55:33;123.40;;;68.93;;
42096;SDS011;27754;45.414;11.084;2023-02-23T12:58:16;119.97;;;67.88;;
42096;SDS011;27754;45.414;11.084;2023-02-23T13:00:52;124.75;;;68.25;;
42096;SDS011;27754;45.414;11.084;2023-02-23T13:06:58;130.07;;;69.30;;
42096;SDS011;27754;45.414;11.084;2023-02-23T13:17:46;116.13;;;65.38;;
42096;SDS011;27754;45.414;11.084;2023-02-23T13:20:25;121.88;;;67.43;;
42096;SDS011;27754;45.414;11.084;2023-02-23T13:28:52;112.63;;;62.72;;
42096;SDS011;27754;45.414;11.084;2023-02-23T13:31:33;107.43;;;61.28;;
42096;SDS011;27754;45.414;11.084;2023-02-23T13:34:06;111.82;;;63.08;;
42096;SDS011;27754;45.414;11.084;2023-02-23T13:36:37;110.22;;;62.17;;
42096;SDS011;27754;45.414;11.084;2023-02-23T13:42:07;111.43;;;62.05;;
42096;SDS011;27754;45.414;11.084;2023-02-23T13:45:01;107.97;;;62.17;;
42096;SDS011;27754;45.414;11.084;2023-02-23T13:47:43;107.68;;;62.00;;
42096;SDS011;27754;45.414;11.084;2023-02-23T13:50:20;109.95;;;63.30;;
42096;SDS011;27754;45.414;11.084;2023-02-23T13:52:52;107.30;;;60.97;;
42096;SDS011;27754;45.414;11.084;2023-02-23T13:58:13;108.25;;;59.75;;
42096;SDS011;27754;45.414;11.084;2023-02-23T14:00:42;106.00;;;62.15;;
42096;SDS011;27754;45.414;11.084;2023-02-23T14:03:22;110.22;;;59.80;;
42096;SDS011;27754;45.414;11.084;2023-02-23T14:05:54;104.88;;;58.55;;
42096;SDS011;27754;45.414;11.084;2023-02-23T14:08:30;115.28;;;62.67;;
42096;SDS011;27754;45.414;11.084;2023-02-23T14:11:00;104.93;;;58.97;;
42096;SDS011;27754;45.414;11.084;2023-02-23T14:13:29;103.45;;;56.53;;
42096;SDS011;27754;45.414;11.084;2023-02-23T14:16:08;97.40;;;56.75;;
42096;SDS011;27754;45.414;11.084;2023-02-23T14:24:13;103.10;;;57.63;;
42096;SDS011;27754;45.414;11.084;2023-02-23T14:32:52;100.97;;;57.88;;
42096;SDS011;27754;45.414;11.084;2023-02-23T14:37:59;102.90;;;57.78;;
42096;SDS011;27754;45.414;11.084;2023-02-23T14:40:31;101.95;;;57.10;;
42096;SDS011;27754;45.414;11.084;2023-02-23T14:43:01;104.15;;;57.85;;
42096;SDS011;27754;45.414;11.084;2023-02-23T14:45:32;99.13;;;55.03;;
42096;SDS011;27754;45.414;11.084;2023-02-23T14:48:08;102.18;;;55.55;;
42096;SDS011;27754;45.414;11.084;2023-02-23T14:50:42;100.10;;;55.50;;
42096;SDS011;27754;45.414;11.084;2023-02-23T14:53:13;95.25;;;52.70;;
42096;SDS011;27754;45.414;11.084;2023-02-23T14:55:47;94.28;;;52.65;;
42096;SDS011;27754;45.414;11.084;2023-02-23T14:58:33;89.68;;;53.75;;
42096;SDS011;27754;45.414;11.084;2023-02-23T15:01:00;92.30;;;52.97;;
42096;SDS011;27754;45.414;11.084;2023-02-23T15:03:27;90.70;;;53.13;;
42096;SDS011;27754;45.414;11.084;2023-02-23T15:08:23;95.65;;;50.75;;
42096;SDS011;27754;45.414;11.084;2023-02-23T15:13:39;92.45;;;52.30;;
42096;SDS011;27754;45.414;11.084;2023-02-23T15:16:13;91.13;;;52.08;;
42096;SDS011;27754;45.414;11.084;2023-02-23T15:18:42;93.00;;;52.83;;
42096;SDS011;27754;45.414;11.084;2023-02-23T15:21:19;95.90;;;53.47;;
42096;SDS011;27754;45.414;11.084;2023-02-23T15:23:49;89.75;;;53.10;;
42096;SDS011;27754;45.414;11.084;2023-02-23T15:26:25;97.78;;;52.67;;
42096;SDS011;27754;45.414;11.084;2023-02-23T15:28:52;93.05;;;52.20;;
42096;SDS011;27754;45.414;11.084;2023-02-23T15:31:19;89.63;;;53.25;;
42096;SDS011;27754;45.414;11.084;2023-02-23T15:33:46;93.95;;;54.38;;
42096;SDS011;27754;45.414;11.084;2023-02-23T15:38:49;94.30;;;52.97;;
42096;SDS011;27754;45.414;11.084;2023-02-23T15:44:19;93.25;;;52.78;;
42096;SDS011;27754;45.414;11.084;2023-02-23T15:47:04;96.38;;;52.67;;
42096;SDS011;27754;45.414;11.084;2023-02-23T15:49:37;89.25;;;48.75;;
42096;SDS011;27754;45.414;11.084;2023-02-23T15:52:14;90.05;;;51.08;;
42096;SDS011;27754;45.414;11.084;2023-02-23T15:54:53;87.28;;;51.28;;
42096;SDS011;27754;45.414;11.084;2023-02-23T15:57:28;96.88;;;52.38;;
42096;SDS011;27754;45.414;11.084;2023-02-23T15:59:57;97.85;;;52.85;;
42096;SDS011;27754;45.414;11.084;2023-02-23T16:02:28;95.57;;;51.15;;
42096;SDS011;27754;45.414;11.084;2023-02-23T16:04:55;89.28;;;50.65;;
42096;SDS011;27754;45.414;11.084;2023-02-23T16:07:38;92.55;;;49.00;;
42096;SDS011;27754;45.414;11.084;2023-02-23T16:10:24;91.22;;;51.42;;
42096;SDS011;27754;45.414;11.084;2023-02-23T16:12:53;90.80;;;51.13;;
42096;SDS011;27754;45.414;11.084;2023-02-23T16:17:52;92.40;;;48.45;;
42096;SDS011;27754;45.414;11.084;2023-02-23T16:20:34;89.75;;;49.60;;
42096;SDS011;27754;45.414;11.084;2023-02-23T16:23:09;85.70;;;50.70;;
42096;SDS011;27754;45.414;11.084;2023-02-23T16:26:00;82.50;;;45.97;;
42096;SDS011;27754;45.414;11.084;2023-02-23T16:28:39;84.97;;;46.47;;
42096;SDS011;27754;45.414;11.084;2023-02-23T16:31:08;89.85;;;49.17;;
42096;SDS011;27754;45.414;11.084;2023-02-23T16:33:49;85.00;;;48.90;;
42096;SDS011;27754;45.414;11.084;2023-02-23T16:36:21;87.85;;;47.30;;